Aérodrome :
LOGIN :

S'inscrire | Disclaimer

   EN    FR    IT 

 










Légende :    VFR   VFR Marginal   IFR   IFR Intensif   IFR Très Intensif
Visi : 
Plafond : 
>= 8 km
>= 3000ft
5 à 8 km
1000 à 3000 ft
1500m à 5 km
500 à 1000 ft
800 à 1500m
200 à 500 ft
< 800m
< 200 ft
Symboles :   Orages  Brouillard  Fortes neiges  Fortes précipitations  Vent > 20 kt
SIGMETs :   Divers  Orages  Givrage  Turbulence  Onde Orograph.  Cendres Volcan.







- Altitude de l'aérodrome : 359 ft
- Code IATA : BVA
- Voir les cartes d'approche


LFOB - Beauvais

DERNIER METAR :
  • 141830Z AUTO 24010KT 210V270 9999 BKN017/// BKN023/// OVC029/// ///TCU 04/03 Q0992 TEMPO 23015G25KT 1500 TSRA BKN007 BKN015CB

METARs EXPIRÉS :
  • 141800Z AUTO 23011KT 9999 BKN016 BKN032 BKN045 04/03 Q0992 TEMPO 23015G25KT 1500 TSRA BKN007 BKN015CB
  • 141730Z AUTO 22008KT 9999 FEW019 BKN160 BKN200 04/02 Q0992 TEMPO 23015G25KT 3000 SHRAGS BKN007 BKN030CB
  • 141700Z AUTO 22008KT 9999 FEW014 OVC170 04/03 Q0992 TEMPO 24020G35KT 2000 SHRA BKN013CB
  • 141630Z AUTO 22007KT 190V250 9999 BKN016 BKN180 OVC220 04/03 Q0993 TEMPO 24020G35KT 2000 SHRA BKN013CB
  • 141600Z AUTO 20007KT CAVOK 03/02 Q0993 TEMPO 24020G35KT 2000 SHRA BKN013CB

TAF AMD TAF LFOB
Valide du 14 à 18h jusqu'au 15 à 18h UTC


141733Z 1418/1518 22008KT 9999 BKN030
TEMPO 1418/1514 23015G25KT 3000 SHRAGS BKN010 BKN030CB
PROB40
TEMPO 1418/1423 1500 TSRA BKN007 BKN015CB
BECMG 1514/1516 32010G20KT
ATIS : +33 3 44 11 49 28
Pas de NOTAMs connus pour ce terrain.
2 SIGMETs publiés pour la FIR Paris (LFFF) :
 
Orages noyés dans la masse
LFFF SIGMET 12 VALID 141730/141930 LFPW
LFFF PARIS FIR/UIR EMBD TS OBS AT 1715Z WI N4900 W00015 - N5000 W00015 - N5030 E00100 - N4945 E00130 - N4900 W00015 TOP FL290 MOV ESE 30KT NC=
Turbulence forte
LFFF SIGMET 11 VALID 141700/142000 LFPW
LFFF PARIS FIR/UIR SEV TURB OBS AT 1700Z S OF N4745 FL160/300 STNR NC=



MET'MAP, la Météo Aéronautique d'un coup d'oeil ! - Copyright ORBIFLY Décembre 2007 - Disclaimer

ORBIFLY MET'MAP TEAM :

Programmation & Développement : Alexandra Zaïnal
Conception & Développement : Baudouin d'Aumeries
Co-Programmation & Développement : Marc-Olivier Méhu
Soutien technique & logistique : Manuel Goepfert

Contact : metmap@orbifly.com




SOURCES & CREDITS :

   NOAA